Disclaimer

Please do not use the information listed here in-flight or in-navigation, as they are not provided to us by the airports but are provided by volunteers, so they might be outdated.

Search


Regions


Airport information page

Radio informations:
ANGERS INFO - 119.0 MHz

Airport informations:
Latitude: 47° 33' 37.00" N
Longitude: 000° 18' 44.00" W
Elevation: 194 feet - 59 meters
Operating hours: Remarks
Operating agency: Civil government, landing fees and diplomatic clearance may be required
Timezone: UTC+1(+2DT) - Last Sunday in March to last Sunday in October
Fuel: Jet A1, without icing nhibitor.

100/130 MIL Spec, low lead, aviation gasoline (BLUE)

Runway information:
08/26 - 5906 x 148 feet< - >1800 x 45 meters

Recent METARs:
LFJR 170700Z AUTO 08009KT 2600 // VV/// 05/05 Q1022
LFJR 170730Z AUTO 07005KT 1800 // OVC002 06/06 Q1022
LFJR 170800Z AUTO 06008KT 1100 R26/1400U // VV/// 06/05 Q1022

Airport on the map: